createdAt,value
2019-05-19T00:01:12.340Z,9.60
2019-05-19T00:03:40.818Z,9.35
2019-05-19T00:06:09.331Z,11.68
2019-05-19T00:08:37.841Z,10.28
2019-05-19T00:11:06.286Z,15.85
2019-05-19T00:13:34.983Z,13.83
2019-05-19T00:16:06.264Z,14.00
2019-05-19T00:18:34.705Z,15.60
2019-05-19T00:21:03.136Z,13.60
2019-05-19T00:23:31.556Z,10.75
2019-05-19T00:25:59.994Z,10.93
2019-05-19T00:28:28.410Z,12.95
2019-05-19T00:30:56.845Z,11.08
2019-05-19T00:33:25.262Z,11.95
2019-05-19T00:35:53.700Z,17.57
2019-05-19T00:38:22.235Z,15.72
2019-05-19T00:40:50.671Z,15.43
2019-05-19T00:43:19.158Z,14.58
2019-05-19T00:45:47.632Z,12.33
2019-05-19T00:48:16.077Z,12.07
2019-05-19T00:50:46.438Z,12.88
2019-05-19T00:53:14.867Z,15.63
2019-05-19T00:55:43.549Z,13.48
2019-05-19T00:58:13.333Z,13.40
2019-05-19T01:00:43.199Z,11.93
2019-05-19T01:03:11.590Z,15.63
2019-05-19T01:05:40.022Z,13.05
2019-05-19T01:08:08.444Z,11.53
2019-05-19T01:10:36.927Z,14.73
2019-05-19T01:13:05.363Z,12.47
2019-05-19T01:15:33.800Z,13.88
2019-05-19T01:18:02.237Z,17.07
2019-05-19T01:20:30.866Z,16.23
2019-05-19T01:22:59.313Z,13.43
2019-05-19T01:25:27.792Z,13.15
2019-05-19T01:27:56.281Z,12.50
2019-05-19T01:30:24.869Z,13.53
2019-05-19T01:32:53.302Z,12.18
2019-05-19T01:35:21.790Z,13.28
2019-05-19T01:37:50.237Z,12.25
2019-05-19T01:40:18.676Z,12.23
2019-05-19T01:42:47.149Z,11.93
2019-05-19T01:45:16.541Z,16.50
2019-05-19T01:47:48.898Z,12.23
2019-05-19T01:50:18.596Z,14.95
2019-05-19T01:52:47.299Z,14.23
2019-05-19T01:55:15.893Z,13.58
2019-05-19T01:57:44.363Z,14.95
2019-05-19T02:00:13.229Z,15.83
2019-05-19T02:02:41.664Z,15.83
2019-05-19T02:05:10.634Z,13.58
2019-05-19T02:07:39.080Z,14.20
2019-05-19T02:10:09.562Z,14.63
2019-05-19T02:12:38.095Z,13.53
2019-05-19T02:15:07.452Z,14.18
2019-05-19T02:17:36.068Z,14.95
2019-05-19T02:20:07.580Z,12.80
2019-05-19T02:22:36.032Z,12.98
2019-05-19T02:25:06.187Z,14.10
2019-05-19T02:27:34.617Z,14.83
2019-05-19T02:30:03.864Z,17.45
2019-05-19T02:32:32.314Z,12.25
2019-05-19T02:35:00.737Z,22.13
2019-05-19T02:37:29.183Z,13.58
2019-05-19T02:39:57.620Z,17.00
2019-05-19T02:42:28.430Z,16.30
2019-05-19T02:47:27.387Z,16.85
2019-05-19T02:49:57.264Z,14.80
2019-05-19T02:52:28.931Z,13.47
2019-05-19T02:54:59.303Z,16.25
2019-05-19T02:57:28.477Z,14.43
2019-05-19T02:59:57.467Z,14.20
2019-05-19T03:02:25.893Z,13.05
2019-05-19T03:04:54.317Z,17.15
2019-05-19T03:07:22.800Z,13.38
2019-05-19T03:09:51.261Z,13.25
2019-05-19T03:12:19.709Z,13.00
2019-05-19T03:14:48.127Z,14.20
2019-05-19T03:17:16.588Z,16.07
2019-05-19T03:19:45.030Z,15.63
2019-05-19T03:22:13.491Z,14.00
2019-05-19T03:24:41.941Z,16.60
2019-05-19T03:27:10.422Z,14.07
2019-05-19T03:29:40.535Z,17.70
2019-05-19T03:32:13.546Z,16.17
2019-05-19T03:34:42.032Z,15.35
2019-05-19T03:37:10.502Z,13.10
2019-05-19T03:39:38.932Z,15.23
2019-05-19T03:42:10.434Z,17.65
2019-05-19T03:44:37.555Z,14.35
2019-05-19T03:47:06.010Z,13.60
2019-05-19T03:49:34.448Z,14.58
2019-05-19T03:52:02.904Z,13.03
2019-05-19T03:54:31.348Z,13.70
2019-05-19T03:56:59.817Z,15.28
2019-05-19T03:59:28.249Z,13.32
2019-05-19T04:01:56.709Z,16.50
2019-05-19T04:04:26.730Z,13.03
2019-05-19T04:06:55.190Z,14.38
2019-05-19T04:09:23.638Z,15.50
2019-05-19T04:11:52.083Z,14.75
2019-05-19T04:14:20.544Z,15.98
2019-05-19T04:16:52.181Z,13.28
2019-05-19T04:19:20.588Z,13.20
2019-05-19T04:21:49.739Z,14.95
2019-05-19T04:24:18.364Z,13.98
2019-05-19T04:26:46.803Z,12.90
2019-05-19T04:29:15.251Z,16.00
2019-05-19T04:31:49.595Z,14.53
2019-05-19T04:34:18.061Z,15.03
2019-05-19T04:36:46.493Z,13.38
2019-05-19T04:39:14.920Z,13.68
2019-05-19T04:41:43.369Z,13.25
2019-05-19T04:44:11.876Z,18.62
2019-05-19T04:46:40.287Z,13.90
2019-05-19T04:49:08.738Z,13.25
2019-05-19T04:51:37.214Z,14.55
2019-05-19T04:54:05.629Z,15.13
2019-05-19T04:56:34.059Z,12.65
2019-05-19T04:59:02.574Z,12.85
2019-05-19T05:01:31.009Z,14.18
2019-05-19T05:03:59.464Z,14.07
2019-05-19T05:06:27.899Z,13.85
2019-05-19T05:08:56.342Z,15.90
2019-05-19T05:11:24.765Z,13.48
2019-05-19T05:13:53.235Z,14.43
2019-05-19T05:16:21.683Z,14.87
2019-05-19T05:18:50.119Z,14.85
2019-05-19T05:21:18.587Z,13.68
2019-05-19T05:23:47.133Z,14.85
2019-05-19T05:26:15.583Z,18.77
2019-05-19T05:28:44.029Z,14.73
2019-05-19T05:31:15.437Z,13.93
2019-05-19T05:33:42.624Z,14.93
2019-05-19T05:36:11.056Z,13.32
2019-05-19T05:38:39.484Z,14.50
2019-05-19T05:41:07.933Z,14.80
2019-05-19T05:43:36.380Z,14.87
2019-05-19T05:46:04.843Z,18.32
2019-05-19T05:48:33.314Z,13.78
2019-05-19T05:51:01.757Z,13.30
2019-05-19T05:53:30.188Z,12.40
2019-05-19T05:55:58.610Z,12.23
2019-05-19T05:58:27.105Z,11.95
2019-05-19T06:00:55.525Z,11.53
2019-05-19T06:03:23.954Z,11.85
2019-05-19T06:05:52.414Z,11.48
2019-05-19T06:08:20.860Z,12.28
2019-05-19T06:10:49.288Z,10.78
2019-05-19T06:13:17.776Z,14.65
2019-05-19T06:15:46.187Z,10.63
2019-05-19T06:18:14.658Z,10.48
2019-05-19T06:20:43.121Z,11.60
2019-05-19T06:23:11.533Z,12.55
2019-05-19T06:25:40.032Z,11.35
2019-05-19T06:28:08.432Z,11.43
2019-05-19T06:30:36.954Z,11.93
2019-05-19T06:33:05.608Z,11.33
2019-05-19T06:35:34.168Z,12.88
2019-05-19T06:38:03.107Z,13.25
2019-05-19T06:40:31.718Z,12.75
2019-05-19T06:43:01.919Z,11.30
2019-05-19T06:45:31.899Z,12.50
2019-05-19T06:48:00.342Z,12.35
2019-05-19T06:50:28.848Z,13.08
2019-05-19T06:53:12.837Z,11.12
2019-05-19T06:55:28.700Z,12.33
2019-05-19T06:57:57.125Z,10.23
2019-05-19T07:00:25.629Z,11.35
2019-05-19T07:02:54.058Z,13.08
2019-05-19T07:05:22.606Z,12.28
2019-05-19T07:07:51.002Z,11.43
2019-05-19T07:10:19.486Z,11.68
2019-05-19T07:12:47.957Z,12.68
2019-05-19T07:15:16.964Z,11.45
2019-05-19T07:17:45.453Z,15.55
2019-05-19T07:20:13.965Z,12.45
2019-05-19T07:22:42.546Z,11.20
2019-05-19T07:25:14.300Z,12.03
2019-05-19T07:27:42.719Z,11.93
2019-05-19T07:30:11.396Z,13.10
2019-05-19T07:32:39.884Z,11.65
2019-05-19T07:35:08.733Z,11.60
2019-05-19T07:37:37.144Z,13.25
2019-05-19T07:40:06.580Z,11.12
2019-05-19T07:42:36.818Z,11.43
2019-05-19T07:45:07.415Z,14.45
2019-05-19T07:47:35.878Z,11.93
2019-05-19T07:50:05.452Z,11.97
2019-05-19T07:52:33.932Z,14.53
2019-05-19T07:55:02.383Z,11.93
2019-05-19T07:57:30.816Z,12.23
2019-05-19T07:59:59.246Z,11.75
2019-05-19T08:02:27.722Z,11.48
2019-05-19T08:04:56.220Z,11.78
2019-05-19T08:07:26.312Z,13.58
2019-05-19T08:09:54.789Z,11.83
2019-05-19T08:12:23.227Z,12.98
2019-05-19T08:14:51.665Z,11.70
2019-05-19T08:17:21.480Z,11.45
2019-05-19T08:19:49.972Z,12.17
2019-05-19T08:22:18.518Z,11.55
2019-05-19T08:24:47.070Z,14.70
2019-05-19T08:27:15.507Z,10.68
2019-05-19T08:29:43.982Z,11.78
2019-05-19T08:32:12.415Z,9.60
2019-05-19T08:34:40.900Z,10.13
2019-05-19T08:37:09.484Z,13.18
2019-05-19T08:39:38.013Z,9.13
2019-05-19T08:42:06.493Z,9.08
2019-05-19T08:44:34.916Z,9.03
2019-05-19T08:47:03.376Z,10.20
2019-05-19T08:49:31.886Z,8.40
2019-05-19T08:52:01.724Z,9.55
2019-05-19T08:54:30.167Z,10.20
2019-05-19T08:56:58.622Z,11.10
2019-05-19T08:59:27.161Z,8.58
2019-05-19T09:01:58.381Z,10.88
2019-05-19T09:04:26.819Z,11.18
2019-05-19T09:06:55.292Z,9.70
2019-05-19T09:09:23.864Z,11.45
2019-05-19T09:11:53.910Z,8.38
2019-05-19T09:14:22.495Z,8.70
2019-05-19T09:16:50.937Z,6.85
2019-05-19T09:19:19.371Z,9.65
2019-05-19T09:21:47.837Z,8.48
2019-05-19T09:24:29.469Z,8.73
2019-05-19T09:26:46.533Z,8.08
2019-05-19T09:29:14.964Z,9.10
2019-05-19T09:31:43.441Z,9.83
2019-05-19T09:34:11.917Z,9.73
2019-05-19T09:36:40.400Z,9.10
2019-05-19T09:39:08.887Z,8.40
2019-05-19T09:41:37.340Z,7.75
2019-05-19T09:44:05.849Z,7.75
2019-05-19T09:46:34.304Z,10.10
2019-05-19T09:49:20.549Z,9.83
2019-05-19T09:51:49.024Z,13.03
2019-05-19T09:54:17.515Z,9.00
2019-05-19T09:56:45.976Z,10.35
2019-05-19T09:59:15.837Z,8.93
2019-05-19T10:01:44.214Z,9.37
2019-05-19T10:04:12.706Z,10.93
2019-05-19T10:06:41.131Z,8.90
2019-05-19T10:09:09.888Z,11.70
2019-05-19T10:12:00.275Z,13.40
2019-05-19T10:14:28.683Z,13.18
2019-05-19T10:16:57.286Z,10.82
2019-05-19T10:19:25.729Z,13.68
2019-05-19T10:21:54.343Z,11.25
2019-05-19T10:24:22.909Z,10.40
2019-05-19T10:26:51.720Z,15.03
2019-05-19T10:29:20.136Z,11.22
2019-05-19T10:31:48.666Z,9.93
2019-05-19T10:34:17.209Z,13.30
2019-05-19T10:36:45.709Z,11.93
2019-05-19T10:39:14.179Z,10.23
2019-05-19T10:41:42.868Z,10.03
2019-05-19T10:44:11.256Z,11.00
2019-05-19T10:46:39.766Z,11.60
2019-05-19T10:49:13.652Z,11.22
2019-05-19T10:51:42.164Z,11.28
2019-05-19T10:54:10.602Z,11.97
2019-05-19T10:56:39.026Z,10.53
2019-05-19T10:59:07.547Z,12.75
2019-05-19T11:01:35.930Z,10.78
2019-05-19T11:04:04.530Z,12.43
2019-05-19T11:06:32.803Z,11.30
2019-05-19T11:09:01.222Z,11.50
2019-05-19T11:11:29.743Z,13.55
2019-05-19T11:13:58.327Z,12.05
2019-05-19T11:16:26.850Z,12.78
2019-05-19T11:18:55.370Z,11.55
2019-05-19T11:21:23.773Z,10.03
2019-05-19T11:23:53.771Z,10.48
2019-05-19T11:26:22.308Z,9.33
2019-05-19T11:28:50.812Z,9.70
2019-05-19T11:31:19.343Z,11.12
2019-05-19T11:33:47.902Z,12.43
2019-05-19T11:36:16.331Z,12.40
2019-05-19T11:38:44.756Z,10.43
2019-05-19T11:41:13.204Z,12.55
2019-05-19T11:43:41.655Z,10.32
2019-05-19T11:46:10.099Z,11.08
2019-05-19T11:48:38.658Z,10.40
2019-05-19T11:51:07.062Z,10.55
2019-05-19T11:53:39.779Z,9.23
2019-05-19T11:56:11.407Z,9.38
2019-05-19T11:58:38.406Z,11.68
2019-05-19T12:01:06.853Z,9.13
2019-05-19T12:03:35.350Z,12.15
2019-05-19T12:06:03.799Z,14.18
2019-05-19T12:08:32.234Z,9.48
2019-05-19T12:11:00.671Z,10.25
2019-05-19T12:13:34.924Z,11.80
2019-05-19T12:16:02.630Z,10.20
2019-05-19T12:18:32.360Z,9.05
2019-05-19T12:21:00.846Z,9.50
2019-05-19T12:23:29.295Z,9.33
2019-05-19T12:25:57.793Z,10.30
2019-05-19T12:28:26.190Z,6.92
2019-05-19T12:30:54.721Z,8.43
2019-05-19T12:33:23.166Z,6.65
2019-05-19T12:35:51.599Z,6.25
2019-05-19T12:38:20.043Z,7.28
2019-05-19T12:40:48.493Z,6.78
2019-05-19T12:43:17.059Z,5.78
2019-05-19T12:45:45.542Z,8.60
2019-05-19T12:48:13.950Z,6.85
2019-05-19T12:50:42.394Z,6.20
2019-05-19T12:53:10.814Z,5.92
2019-05-19T12:55:39.235Z,5.83
2019-05-19T12:58:07.704Z,6.25
2019-05-19T13:00:39.198Z,5.92
2019-05-19T13:03:10.288Z,6.17
2019-05-19T13:05:41.337Z,6.35
2019-05-19T13:08:11.628Z,7.47
2019-05-19T13:10:40.165Z,7.65
2019-05-19T13:13:08.608Z,6.60
2019-05-19T13:15:37.056Z,6.62
2019-05-19T13:18:05.494Z,8.48
2019-05-19T13:20:33.923Z,7.10
2019-05-19T13:23:02.400Z,7.28
2019-05-19T13:25:30.916Z,8.03
2019-05-19T13:27:59.374Z,6.22
2019-05-19T13:30:27.922Z,6.22
2019-05-19T13:32:56.448Z,6.55
2019-05-19T13:35:30.738Z,7.22
2019-05-19T13:37:59.152Z,6.92
2019-05-19T13:40:27.606Z,6.55
2019-05-19T13:42:56.086Z,6.42
2019-05-19T13:45:24.572Z,7.58
2019-05-19T13:47:53.149Z,5.95
2019-05-19T13:50:21.551Z,8.98
2019-05-19T13:52:51.263Z,6.97
2019-05-19T13:55:19.954Z,6.80
2019-05-19T13:57:48.409Z,8.43
2019-05-19T14:00:17.181Z,6.62
2019-05-19T14:02:45.645Z,7.90
2019-05-19T14:05:17.264Z,7.05
2019-05-19T14:07:45.755Z,7.20
2019-05-19T14:10:14.784Z,9.45
2019-05-19T14:12:43.297Z,9.48
2019-05-19T14:15:11.782Z,7.87
2019-05-19T14:17:40.224Z,7.92
2019-05-19T14:20:09.251Z,9.28
2019-05-19T14:22:37.761Z,8.68
2019-05-19T14:25:07.008Z,7.67
2019-05-19T14:27:35.414Z,8.43
2019-05-19T14:30:05.193Z,6.55
2019-05-19T14:32:33.818Z,7.43
2019-05-19T14:35:02.319Z,7.20
2019-05-19T14:37:30.789Z,6.80
2019-05-19T14:39:59.272Z,7.00
2019-05-19T14:42:45.598Z,7.22
2019-05-19T14:45:14.345Z,7.42
2019-05-19T14:47:42.778Z,8.43
2019-05-19T14:50:11.383Z,6.95
2019-05-19T14:52:40.560Z,7.28
2019-05-19T14:55:11.885Z,9.23
2019-05-19T14:57:44.953Z,7.47
2019-05-19T15:00:11.369Z,6.87
2019-05-19T15:02:39.787Z,8.83
2019-05-19T15:05:08.548Z,7.37
2019-05-19T15:07:36.959Z,7.75
2019-05-19T15:10:06.743Z,7.33
2019-05-19T15:12:36.794Z,6.83
2019-05-19T15:15:07.155Z,7.10
2019-05-19T15:17:37.220Z,7.33
2019-05-19T15:20:11.179Z,8.33
2019-05-19T15:22:39.615Z,9.33
2019-05-19T15:25:08.774Z,7.05
2019-05-19T15:27:37.379Z,7.37
2019-05-19T15:30:13.108Z,7.00
2019-05-19T15:32:37.943Z,9.40
2019-05-19T15:35:08.355Z,10.13
2019-05-19T15:37:36.779Z,9.15
2019-05-19T15:40:08.151Z,9.28
2019-05-19T15:42:39.335Z,8.50
2019-05-19T15:45:08.777Z,9.20
2019-05-19T15:47:37.263Z,9.65
2019-05-19T15:50:09.878Z,7.95
2019-05-19T15:52:38.316Z,9.48
2019-05-19T15:55:06.922Z,8.45
2019-05-19T15:57:35.620Z,8.33
2019-05-19T16:00:08.266Z,8.30
2019-05-19T16:02:36.873Z,10.53
2019-05-19T16:05:06.761Z,7.50
2019-05-19T16:07:35.208Z,7.85
2019-05-19T16:10:05.905Z,11.48
2019-05-19T16:15:02.163Z,8.95
2019-05-19T16:17:30.694Z,8.35
2019-05-19T16:19:59.241Z,9.58
2019-05-19T16:22:27.634Z,9.23
2019-05-19T16:24:56.099Z,7.50
2019-05-19T16:27:24.607Z,12.68
2019-05-19T16:29:55.835Z,9.20
2019-05-19T16:32:28.806Z,7.65
2019-05-19T16:34:56.333Z,6.22
2019-05-19T16:37:26.522Z,5.47
2019-05-19T16:40:02.048Z,9.43
2019-05-19T16:42:32.231Z,6.50
2019-05-19T16:45:00.682Z,4.92
2019-05-19T16:47:29.132Z,5.80
2019-05-19T16:49:57.600Z,5.42
2019-05-19T16:52:26.024Z,4.75
2019-05-19T16:55:35.816Z,6.15
2019-05-19T16:58:28.857Z,8.35
2019-05-19T17:00:57.077Z,8.38
2019-05-19T17:03:25.545Z,7.33
2019-05-19T17:05:56.015Z,5.70
2019-05-19T17:08:24.538Z,5.03
2019-05-19T17:10:53.075Z,4.35
2019-05-19T17:13:21.630Z,8.75
2019-05-19T17:15:51.635Z,4.37
2019-05-19T17:18:20.211Z,7.78
2019-05-19T17:20:53.981Z,4.15
2019-05-19T17:23:22.454Z,5.67
2019-05-19T17:25:50.924Z,5.55
2019-05-19T17:28:19.433Z,4.25
2019-05-19T17:30:47.878Z,5.45
2019-05-19T17:33:16.353Z,4.45
2019-05-19T17:35:44.885Z,2.92
2019-05-19T17:38:13.315Z,5.85
2019-05-19T17:40:41.855Z,5.42
2019-05-19T17:43:10.351Z,3.08
2019-05-19T17:45:38.875Z,3.27
2019-05-19T17:48:10.111Z,3.37
2019-05-19T17:50:37.648Z,5.12
2019-05-19T17:53:06.303Z,5.25
2019-05-19T17:55:38.157Z,5.55
2019-05-19T17:58:06.662Z,4.62
2019-05-19T18:00:45.991Z,4.72
2019-05-19T18:03:14.503Z,3.35
2019-05-19T18:05:43.049Z,3.65
2019-05-19T18:08:11.519Z,4.58
2019-05-19T18:10:39.969Z,5.60
2019-05-19T18:13:08.403Z,6.08
2019-05-19T18:15:37.326Z,5.03
2019-05-19T18:18:05.805Z,3.75
2019-05-19T18:20:34.365Z,3.92
2019-05-19T18:23:02.823Z,4.25
2019-05-19T18:25:31.382Z,5.65
2019-05-19T18:27:59.871Z,9.48
2019-05-19T18:30:29.601Z,3.85
2019-05-19T18:32:58.014Z,4.35
2019-05-19T18:35:26.456Z,3.65
2019-05-19T18:37:54.905Z,5.25
2019-05-19T18:40:23.418Z,4.12
2019-05-19T18:42:51.799Z,4.05
2019-05-19T18:45:20.259Z,3.55
2019-05-19T18:47:48.746Z,5.40
2019-05-19T18:50:17.331Z,3.83
2019-05-19T18:52:45.768Z,4.30
2019-05-19T18:55:14.277Z,4.80
2019-05-19T18:57:42.775Z,4.62
2019-05-19T19:00:11.456Z,4.15
2019-05-19T19:02:40.391Z,5.20
2019-05-19T19:05:09.013Z,7.40
2019-05-19T19:07:55.341Z,6.08
2019-05-19T19:10:23.870Z,4.92
2019-05-19T19:12:52.335Z,6.70
2019-05-19T19:15:20.810Z,8.53
2019-05-19T19:17:49.242Z,4.87
2019-05-19T19:20:17.755Z,9.50
2019-05-19T19:22:46.226Z,7.08
2019-05-19T19:25:14.632Z,6.05
2019-05-19T19:27:43.168Z,6.00
2019-05-19T19:30:12.650Z,6.75
2019-05-19T19:32:41.110Z,8.73
2019-05-19T19:35:10.079Z,5.33
2019-05-19T19:37:38.526Z,5.20
2019-05-19T19:40:08.573Z,9.83
2019-05-19T19:42:36.993Z,8.03
2019-05-19T19:45:06.957Z,6.40
2019-05-19T19:47:35.792Z,9.05
2019-05-19T19:50:09.092Z,6.85
2019-05-19T19:52:37.521Z,6.03
2019-05-19T19:55:09.009Z,8.30
2019-05-19T19:57:37.428Z,7.08
2019-05-19T20:00:17.978Z,7.90
2019-05-19T20:02:38.749Z,8.20
2019-05-19T20:05:08.267Z,9.28
2019-05-19T20:07:36.692Z,7.75
2019-05-19T20:10:08.703Z,8.98
2019-05-19T20:12:37.563Z,13.00
2019-05-19T20:15:07.107Z,8.38
2019-05-19T20:17:36.259Z,11.38
2019-05-19T20:20:06.676Z,8.65
2019-05-19T20:22:35.146Z,8.98
2019-05-19T20:25:03.991Z,11.93
2019-05-19T20:27:32.460Z,7.28
2019-05-19T20:30:00.875Z,9.58
2019-05-19T20:32:29.299Z,10.70
2019-05-19T20:34:57.763Z,9.33
2019-05-19T20:37:26.266Z,8.10
2019-05-19T20:39:54.669Z,7.92
2019-05-19T20:42:23.102Z,7.37
2019-05-19T20:44:51.537Z,11.28
2019-05-19T20:47:19.990Z,8.85
2019-05-19T20:49:48.407Z,8.88
2019-05-19T20:52:16.847Z,7.87
2019-05-19T20:54:45.271Z,11.68
2019-05-19T20:57:15.231Z,8.75
2019-05-19T20:59:43.623Z,9.23
2019-05-19T21:02:12.034Z,11.40
2019-05-19T21:04:40.476Z,13.25
2019-05-19T21:07:09.085Z,10.78
2019-05-19T21:09:37.510Z,8.35
2019-05-19T21:12:05.956Z,10.68
2019-05-19T21:14:34.374Z,16.87
2019-05-19T21:17:02.853Z,10.20
2019-05-19T21:19:31.271Z,8.43
2019-05-19T21:21:59.687Z,11.90
2019-05-19T21:24:28.134Z,10.05
2019-05-19T21:26:56.609Z,11.43
2019-05-19T21:29:24.974Z,11.30
2019-05-19T21:31:53.384Z,10.23
2019-05-19T21:34:21.803Z,9.55
2019-05-19T21:36:50.235Z,10.50
2019-05-19T21:39:18.680Z,9.93
2019-05-19T21:41:47.100Z,11.03
2019-05-19T21:44:15.519Z,9.13
2019-05-19T21:46:43.932Z,10.60
2019-05-19T21:49:12.359Z,9.45
2019-05-19T21:51:40.813Z,11.50
2019-05-19T21:54:09.253Z,10.03
2019-05-19T21:56:37.690Z,10.35
2019-05-19T21:59:06.193Z,11.85
2019-05-19T22:01:34.676Z,12.03
2019-05-19T22:04:03.124Z,12.98
2019-05-19T22:06:33.159Z,11.38
2019-05-19T22:09:01.615Z,11.83
2019-05-19T22:11:30.038Z,12.50
2019-05-19T22:13:58.536Z,15.58
2019-05-19T22:16:26.949Z,13.50
2019-05-19T22:18:55.417Z,14.40
2019-05-19T22:21:23.835Z,15.85
2019-05-19T22:23:52.267Z,15.30
2019-05-19T22:26:20.702Z,16.85
2019-05-19T22:28:49.144Z,13.25
2019-05-19T22:31:19.741Z,14.47
2019-05-19T22:33:47.715Z,15.15
2019-05-19T22:36:17.656Z,16.23
2019-05-19T22:38:46.946Z,16.83
2019-05-19T22:41:15.380Z,16.42
2019-05-19T22:43:43.809Z,14.45
2019-05-19T22:46:12.230Z,15.58
2019-05-19T22:48:40.672Z,19.40
2019-05-19T22:51:09.141Z,18.32
2019-05-19T22:53:37.585Z,16.00
2019-05-19T22:56:06.098Z,15.60
2019-05-19T22:58:34.543Z,19.27
2019-05-19T23:01:02.978Z,15.65
2019-05-19T23:03:32.599Z,17.73
2019-05-19T23:06:01.038Z,18.82
2019-05-19T23:08:30.636Z,17.55
2019-05-19T23:10:59.032Z,17.17
2019-05-19T23:13:27.460Z,18.48
2019-05-19T23:15:55.957Z,16.48
2019-05-19T23:18:25.591Z,18.30
2019-05-19T23:20:54.145Z,17.30
2019-05-19T23:23:22.570Z,20.72
2019-05-19T23:25:51.003Z,18.10
2019-05-19T23:28:19.409Z,21.23
2019-05-19T23:30:47.848Z,19.82
2019-05-19T23:33:16.277Z,18.90
2019-05-19T23:35:44.702Z,18.45
2019-05-19T23:38:13.115Z,18.95
2019-05-19T23:40:41.549Z,20.97
2019-05-19T23:43:12.925Z,18.27
2019-05-19T23:45:41.448Z,18.65
2019-05-19T23:48:09.878Z,23.05
2019-05-19T23:50:38.319Z,23.65
2019-05-19T23:53:06.746Z,22.77
2019-05-19T23:55:35.175Z,23.95
2019-05-19T23:58:03.586Z,21.23
